Time;durP1;ratioP1;P1;durP2;ratioP2;P2;SDS_P1;SDS_P2;PMS_P1;PMS_P2;Temp;Humidity;BMP_temperature;BMP_pressure;BME280_temperature;BME280_humidity;BME280_pressure;Samples;Min_cycle;Max_cycle;Signal;HPM_P1;HPM_P2
2022/03/26 00:02:12;;;;;;;58.28;30.90;;;5.60;99.90;;;;;;5127202;27;20111;-68
2022/03/26 00:04:38;;;;;;;55.45;29.25;;;5.60;99.90;;;;;;5145219;27;20034;-68
2022/03/26 00:07:04;;;;;;;53.17;28.48;;;5.50;99.90;;;;;;5143318;27;20050;-68
2022/03/26 00:09:29;;;;;;;52.67;28.90;;;5.50;99.90;;;;;;5161063;27;20076;-68
2022/03/26 00:11:56;;;;;;;51.92;30.73;;;5.50;99.90;;;;;;5143408;27;20039;-68
2022/03/26 00:14:22;;;;;;;52.20;28.77;;;5.40;99.90;;;;;;5145433;27;20054;-68
2022/03/26 00:16:47;;;;;;;52.33;29.20;;;5.30;99.90;;;;;;5144636;27;20051;-68
2022/03/26 00:19:14;;;;;;;56.40;30.48;;;5.30;99.90;;;;;;5145972;27;20055;-69
2022/03/26 00:21:40;;;;;;;53.83;31.63;;;5.30;99.90;;;;;;5144923;27;20100;-68
2022/03/26 00:24:06;;;;;;;64.95;31.95;;;5.20;99.90;;;;;;5143516;27;20077;-68
2022/03/26 00:26:32;;;;;;;60.38;33.78;;;5.20;99.90;;;;;;5144635;27;20078;-68
2022/03/26 00:28:59;;;;;;;62.10;34.13;;;5.20;99.90;;;;;;5145008;27;20035;-68
2022/03/26 00:31:25;;;;;;;57.17;32.75;;;5.30;99.90;;;;;;5143329;28;20051;-69
2022/03/26 00:33:53;;;;;;;63.28;32.63;;;5.30;99.90;;;;;;5144154;28;20454;-68
2022/03/26 00:36:20;;;;;;;63.83;32.95;;;5.20;99.90;;;;;;5142978;28;20059;-68
2022/03/26 00:38:46;;;;;;;65.63;35.28;;;5.20;99.90;;;;;;5143356;28;20350;-68
2022/03/26 00:41:12;;;;;;;66.68;34.75;;;5.10;99.90;;;;;;5144626;27;20488;-68
2022/03/26 00:43:37;;;;;;;67.82;35.17;;;5.20;99.90;;;;;;5143098;28;20074;-68
2022/03/26 00:46:03;;;;;;;65.25;36.40;;;5.20;99.90;;;;;;5143194;28;20055;-68
2022/03/26 00:48:29;;;;;;;71.97;37.80;;;5.20;99.90;;;;;;5146245;27;20046;-68
2022/03/26 00:50:55;;;;;;;77.82;38.83;;;5.20;99.90;;;;;;5148384;27;20039;-68
2022/03/26 00:53:20;;;;;;;79.35;39.38;;;5.10;99.90;;;;;;5147337;27;20053;-68
2022/03/26 00:55:46;;;;;;;77.13;39.33;;;5.10;99.90;;;;;;5148572;27;20116;-68
2022/03/26 00:58:12;;;;;;;73.65;39.30;;;5.10;99.90;;;;;;5148850;27;20081;-68
2022/03/26 01:00:38;;;;;;;76.05;41.25;;;5.10;99.90;;;;;;5146919;27;20039;-68
2022/03/26 01:03:08;;;;;;;82.03;42.08;;;5.10;99.90;;;;;;5130887;27;20402;-68
2022/03/26 01:05:34;;;;;;;80.90;43.00;;;5.00;99.90;;;;;;5148356;27;20059;-68
2022/03/26 01:08:00;;;;;;;80.80;42.40;;;4.90;99.90;;;;;;5148459;27;20095;-68
2022/03/26 01:10:27;;;;;;;80.78;42.90;;;4.80;99.90;;;;;;5146916;27;20504;-68
2022/03/26 01:12:53;;;;;;;88.82;44.88;;;4.70;99.90;;;;;;5148219;27;20054;-68
2022/03/26 01:15:19;;;;;;;91.63;46.20;;;4.60;99.90;;;;;;5147335;27;20039;-68
2022/03/26 01:17:45;;;;;;;96.10;49.72;;;4.60;99.90;;;;;;5128216;27;20054;-68
2022/03/26 01:20:11;;;;;;;100.18;49.97;;;4.70;99.90;;;;;;5148118;27;20049;-68
2022/03/26 01:22:37;;;;;;;91.22;47.05;;;4.70;99.90;;;;;;5129807;27;20132;-68
2022/03/26 01:25:05;;;;;;;94.10;46.83;;;4.80;99.90;;;;;;5130661;27;20043;-68
2022/03/26 01:27:31;;;;;;;87.00;46.55;;;4.80;99.90;;;;;;5148997;27;20031;-68
2022/03/26 01:29:57;;;;;;;92.82;46.10;;;4.80;99.90;;;;;;5146249;27;20139;-68
2022/03/26 01:32:23;;;;;;;91.18;46.28;;;4.70;99.90;;;;;;5147666;27;20043;-68
2022/03/26 01:34:49;;;;;;;93.00;45.72;;;4.60;99.90;;;;;;5129285;27;20070;-68
2022/03/26 01:37:16;;;;;;;80.53;42.47;;;4.50;99.90;;;;;;5146837;27;20526;-68
2022/03/26 01:39:43;;;;;;;86.50;43.35;;;4.40;99.90;;;;;;5148926;27;20047;-68
2022/03/26 01:42:09;;;;;;;89.95;42.35;;;4.50;99.90;;;;;;5147176;27;20047;-68
2022/03/26 01:44:37;;;;;;;74.78;37.58;;;4.50;99.90;;;;;;5147693;27;20499;-68
2022/03/26 01:47:04;;;;;;;75.47;38.05;;;4.40;99.90;;;;;;5148662;27;20241;-68
2022/03/26 01:49:31;;;;;;;70.57;34.08;;;4.40;99.90;;;;;;5147768;27;20047;-68
2022/03/26 01:51:57;;;;;;;63.03;33.10;;;4.30;99.90;;;;;;5141375;27;20039;-68
2022/03/26 01:54:24;;;;;;;61.17;32.53;;;4.30;99.90;;;;;;5141106;27;20171;-68
2022/03/26 01:56:49;;;;;;;70.55;36.60;;;4.30;99.90;;;;;;5146406;27;20039;-68
2022/03/26 01:59:15;;;;;;;83.78;42.38;;;4.40;99.90;;;;;;5145943;27;20066;-68
2022/03/26 02:01:42;;;;;;;77.53;40.15;;;4.40;99.90;;;;;;5146096;27;20039;-68
2022/03/26 02:04:08;;;;;;;72.80;37.53;;;4.30;99.90;;;;;;5147194;27;20521;-68
2022/03/26 02:06:38;;;;;;;69.68;36.55;;;4.30;99.90;;;;;;5147305;27;20410;-68
2022/03/26 02:09:09;;;;;;;72.03;38.83;;;4.20;99.90;;;;;;5146626;27;20072;-68
2022/03/26 02:11:39;;;;;;;71.43;36.05;;;4.20;99.90;;;;;;5146775;27;20118;-68
2022/03/26 02:14:08;;;;;;;74.57;36.72;;;4.10;99.90;;;;;;5147032;27;20110;-68
2022/03/26 02:16:35;;;;;;;73.22;37.15;;;4.20;99.90;;;;;;5142088;27;20053;-68
2022/03/26 02:19:01;;;;;;;78.60;37.13;;;4.10;99.90;;;;;;5145839;27;20076;-68
2022/03/26 02:21:27;;;;;;;84.80;43.75;;;4.00;99.90;;;;;;5145296;27;20051;-68
2022/03/26 02:23:53;;;;;;;89.10;42.33;;;4.00;99.90;;;;;;5145852;27;20039;-68
2022/03/26 02:26:26;;;;;;;88.68;44.53;;;3.80;99.90;;;;;;5145586;27;20047;-68
2022/03/26 02:28:52;;;;;;;93.60;46.28;;;3.90;99.90;;;;;;5146566;27;20436;-68
2022/03/26 02:31:18;;;;;;;95.75;44.97;;;3.70;99.90;;;;;;5146797;27;20047;-68
2022/03/26 02:33:44;;;;;;;93.70;46.58;;;3.70;99.90;;;;;;5145044;27;20043;-68
2022/03/26 02:36:10;;;;;;;91.90;44.42;;;3.50;99.90;;;;;;5145453;27;20444;-68
2022/03/26 02:38:37;;;;;;;93.95;45.60;;;3.60;99.90;;;;;;5145630;27;20079;-68
2022/03/26 02:41:05;;;;;;;89.65;44.72;;;3.60;99.90;;;;;;5146394;27;20039;-68
2022/03/26 02:43:30;;;;;;;90.28;43.67;;;3.60;99.90;;;;;;5146424;27;20427;-68
2022/03/26 02:45:56;;;;;;;98.75;46.13;;;3.40;99.90;;;;;;5145175;27;20042;-68
2022/03/26 02:48:22;;;;;;;97.43;47.50;;;3.30;99.90;;;;;;5141831;27;20486;-68
2022/03/26 02:50:48;;;;;;;98.55;47.10;;;3.30;99.90;;;;;;5146648;27;20134;-68
2022/03/26 02:53:14;;;;;;;101.57;49.10;;;3.30;99.90;;;;;;5147653;27;20440;-68
2022/03/26 02:55:40;;;;;;;94.32;47.28;;;3.30;99.90;;;;;;5147775;27;20058;-68
2022/03/26 02:58:08;;;;;;;87.97;43.15;;;3.40;99.90;;;;;;5145350;27;20047;-68
2022/03/26 03:00:34;;;;;;;84.95;43.40;;;3.30;99.90;;;;;;5140283;27;20103;-68
2022/03/26 03:03:00;;;;;;;86.55;42.22;;;3.30;99.90;;;;;;5138506;27;20065;-68
2022/03/26 03:05:27;;;;;;;75.07;36.53;;;3.30;99.90;;;;;;5143682;27;20047;-68
2022/03/26 03:07:53;;;;;;;66.05;33.85;;;3.10;99.90;;;;;;5145037;27;20047;-68
2022/03/26 03:10:20;;;;;;;64.20;31.23;;;3.00;99.90;;;;;;5144971;27;20051;-68
2022/03/26 03:12:47;;;;;;;58.08;29.23;;;2.90;99.90;;;;;;5146806;27;20066;-68
2022/03/26 03:15:13;;;;;;;62.08;30.27;;;2.80;99.90;;;;;;5145756;27;20578;-68
2022/03/26 03:17:41;;;;;;;61.05;30.00;;;2.90;99.90;;;;;;5145707;27;20059;-68
2022/03/26 03:20:08;;;;;;;62.17;31.83;;;2.80;99.90;;;;;;5145266;27;20111;-67
2022/03/26 03:22:35;;;;;;;64.22;32.67;;;2.90;99.90;;;;;;5145896;27;20043;-68
2022/03/26 03:25:00;;;;;;;72.70;33.85;;;2.90;99.90;;;;;;5145760;27;20073;-68
2022/03/26 03:27:26;;;;;;;74.18;36.95;;;2.90;99.90;;;;;;5145965;27;20046;-68
2022/03/26 03:29:52;;;;;;;69.45;35.80;;;2.90;99.90;;;;;;5144277;27;20039;-68
2022/03/26 03:32:18;;;;;;;75.63;36.45;;;2.90;99.90;;;;;;5146969;27;20046;-68
2022/03/26 03:34:44;;;;;;;68.35;35.35;;;3.00;99.90;;;;;;5160420;27;20039;-68
2022/03/26 03:37:10;;;;;;;79.43;37.55;;;3.00;99.90;;;;;;5146515;27;20043;-68
2022/03/26 03:39:36;;;;;;;73.93;37.38;;;3.00;99.90;;;;;;5145381;27;20054;-68
2022/03/26 03:42:03;;;;;;;73.70;35.35;;;3.00;99.90;;;;;;5145320;27;20051;-68
2022/03/26 03:44:29;;;;;;;69.43;33.00;;;3.00;99.90;;;;;;5146070;27;20050;-68
2022/03/26 03:46:54;;;;;;;68.43;34.00;;;2.90;99.90;;;;;;5146040;27;20080;-68
2022/03/26 03:49:20;;;;;;;68.68;34.00;;;3.00;99.90;;;;;;5143238;27;20039;-68
2022/03/26 03:51:46;;;;;;;66.45;34.60;;;2.90;99.90;;;;;;5143761;27;20047;-68
2022/03/26 03:54:11;;;;;;;63.35;32.17;;;2.80;99.90;;;;;;5144345;27;20047;-68
2022/03/26 03:56:38;;;;;;;65.40;33.28;;;2.60;99.90;;;;;;5144013;27;20096;-68
2022/03/26 03:59:04;;;;;;;72.60;35.38;;;2.80;99.90;;;;;;5145073;27;20096;-68
2022/03/26 04:01:29;;;;;;;77.75;37.88;;;2.70;99.90;;;;;;5143690;27;20043;-68
2022/03/26 04:03:55;;;;;;;94.18;41.83;;;2.80;99.90;;;;;;5143848;27;20039;-68
2022/03/26 04:06:21;;;;;;;110.20;46.03;;;2.70;99.90;;;;;;5161354;27;20098;-68
2022/03/26 04:08:47;;;;;;;108.22;48.75;;;2.60;99.90;;;;;;5144388;27;20508;-68
2022/03/26 04:11:12;;;;;;;112.30;51.92;;;2.80;99.90;;;;;;5143787;27;20050;-68
2022/03/26 04:13:38;;;;;;;110.68;50.33;;;2.80;99.90;;;;;;5144496;27;20039;-68
2022/03/26 04:16:05;;;;;;;112.22;49.80;;;2.80;99.90;;;;;;5146244;27;20046;-68
2022/03/26 04:18:31;;;;;;;121.38;50.17;;;3.00;99.90;;;;;;5145621;27;20088;-68
2022/03/26 04:20:57;;;;;;;122.97;52.95;;;3.00;99.90;;;;;;5143692;27;20055;-67
2022/03/26 04:23:24;;;;;;;128.00;54.65;;;3.00;99.90;;;;;;5144060;27;20046;-68
2022/03/26 04:25:50;;;;;;;111.22;49.80;;;3.10;99.90;;;;;;5144055;27;20411;-68
2022/03/26 04:28:15;;;;;;;111.15;48.33;;;3.00;99.90;;;;;;5143393;27;20044;-67
2022/03/26 04:30:41;;;;;;;103.03;47.05;;;3.20;99.90;;;;;;5143484;28;20053;-68
2022/03/26 04:33:07;;;;;;;94.63;44.90;;;3.20;99.90;;;;;;5144986;28;22735;-68
2022/03/26 04:35:33;;;;;;;96.88;44.60;;;3.10;99.90;;;;;;5143370;28;20122;-68
2022/03/26 04:37:59;;;;;;;87.68;39.15;;;3.10;99.90;;;;;;5144708;27;20095;-68
2022/03/26 04:40:26;;;;;;;71.10;33.45;;;3.20;99.90;;;;;;5145473;28;20039;-68
2022/03/26 04:42:52;;;;;;;77.70;33.33;;;3.10;99.90;;;;;;5144898;27;20043;-68
2022/03/26 04:45:18;;;;;;;81.13;33.83;;;3.10;99.90;;;;;;5126246;28;20078;-68
2022/03/26 04:47:44;;;;;;;91.50;38.72;;;3.00;99.90;;;;;;5143154;28;20044;-68
2022/03/26 04:50:11;;;;;;;90.22;41.28;;;3.00;99.90;;;;;;5144636;27;20035;-68
2022/03/26 04:52:38;;;;;;;104.45;45.45;;;3.10;99.90;;;;;;5144087;28;20043;-68
2022/03/26 04:55:08;;;;;;;103.93;46.30;;;3.10;99.90;;;;;;5143319;28;20057;-68
2022/03/26 04:57:42;;;;;;;91.95;41.97;;;3.00;99.90;;;;;;5143137;28;20043;-68
2022/03/26 05:00:10;;;;;;;93.88;44.58;;;2.90;99.90;;;;;;5144223;28;20054;-68
2022/03/26 05:02:39;;;;;;;86.55;40.75;;;2.70;99.90;;;;;;5143139;28;20060;-68
2022/03/26 05:05:09;;;;;;;89.82;39.97;;;2.70;99.90;;;;;;5144269;28;20103;-68
2022/03/26 05:07:45;;;;;;;94.80;43.47;;;2.50;99.90;;;;;;5143075;28;20047;-68
2022/03/26 05:10:22;;;;;;;93.45;43.00;;;2.50;99.90;;;;;;5143406;28;20043;-68
2022/03/26 05:12:49;;;;;;;96.30;45.30;;;2.20;99.90;;;;;;5143888;27;20043;-68
2022/03/26 05:15:17;;;;;;;105.80;48.20;;;2.20;99.90;;;;;;5143967;27;20050;-68
2022/03/26 05:17:43;;;;;;;124.80;53.03;;;2.30;99.90;;;;;;5142547;28;20047;-67
2022/03/26 05:20:14;;;;;;;112.25;52.70;;;2.50;99.90;;;;;;5143169;28;20130;-68
2022/03/26 05:22:41;;;;;;;131.07;54.15;;;2.50;99.90;;;;;;5143753;28;20106;-68
2022/03/26 05:25:08;;;;;;;131.45;56.78;;;2.70;99.90;;;;;;5142205;28;20050;-67
2022/03/26 05:27:35;;;;;;;117.10;50.97;;;2.60;99.90;;;;;;5142745;28;20074;-67
2022/03/26 05:30:02;;;;;;;107.75;49.40;;;2.60;99.90;;;;;;5143063;28;20054;-68
2022/03/26 05:32:27;;;;;;;109.38;49.22;;;2.60;99.90;;;;;;5143247;28;20039;-67
2022/03/26 05:34:53;;;;;;;92.82;45.03;;;2.50;99.90;;;;;;5144883;27;20172;-67
2022/03/26 05:37:19;;;;;;;94.25;43.55;;;2.60;99.90;;;;;;5148161;27;20103;-67
2022/03/26 05:39:45;;;;;;;93.45;43.70;;;2.50;99.90;;;;;;5147484;27;20050;-67
2022/03/26 05:42:12;;;;;;;90.43;41.42;;;2.60;99.90;;;;;;5146266;27;20098;-68
2022/03/26 05:44:38;;;;;;;92.07;42.30;;;2.50;99.90;;;;;;5147500;27;20042;-68
2022/03/26 05:47:04;;;;;;;81.78;38.55;;;2.60;99.90;;;;;;5146912;27;20031;-68
2022/03/26 05:49:29;;;;;;;90.18;41.60;;;2.60;99.90;;;;;;5145286;27;20054;-68
2022/03/26 05:51:55;;;;;;;90.07;41.90;;;2.70;99.90;;;;;;5148469;27;20043;-67
2022/03/26 05:54:21;;;;;;;91.47;40.83;;;2.70;99.90;;;;;;5148579;27;20520;-68
2022/03/26 05:56:52;;;;;;;86.28;41.00;;;2.60;99.90;;;;;;5147330;27;20417;-67
2022/03/26 05:59:23;;;;;;;84.80;41.58;;;2.70;99.90;;;;;;5148351;27;20078;-68
2022/03/26 06:01:50;;;;;;;95.72;43.72;;;2.70;99.90;;;;;;5147077;27;20150;-67
2022/03/26 06:04:17;;;;;;;103.63;46.50;;;2.70;99.90;;;;;;5148829;27;20039;-67
2022/03/26 06:06:43;;;;;;;101.18;46.13;;;2.90;99.90;;;;;;5146970;27;20043;-67
2022/03/26 06:09:10;;;;;;;102.07;46.15;;;2.90;99.90;;;;;;5147242;27;20043;-67
2022/03/26 06:11:36;;;;;;;115.75;51.28;;;3.00;99.90;;;;;;5146928;27;20047;-67
2022/03/26 06:14:02;;;;;;;111.05;51.33;;;3.10;99.90;;;;;;5145153;27;20054;-67
2022/03/26 06:16:28;;;;;;;140.32;58.33;;;3.10;99.90;;;;;;5145290;27;20058;-68
2022/03/26 06:18:54;;;;;;;144.20;59.67;;;3.20;99.90;;;;;;5145696;27;20058;-67
2022/03/26 06:21:20;;;;;;;151.13;62.38;;;3.20;99.90;;;;;;5147120;27;20122;-68
2022/03/26 06:23:45;;;;;;;144.57;62.00;;;3.30;99.90;;;;;;5146301;27;20047;-67
2022/03/26 06:26:11;;;;;;;149.30;63.55;;;3.40;99.90;;;;;;5146926;27;20039;-68
2022/03/26 06:28:37;;;;;;;167.35;69.32;;;3.60;99.90;;;;;;5147248;27;20043;-68
2022/03/26 06:31:03;;;;;;;169.55;71.63;;;3.60;99.90;;;;;;5145257;27;20054;-67
2022/03/26 06:33:29;;;;;;;167.40;68.70;;;3.80;99.90;;;;;;5146600;27;20031;-68
2022/03/26 06:35:55;;;;;;;187.10;75.82;;;3.90;99.90;;;;;;5144986;27;20398;-67
2022/03/26 06:38:21;;;;;;;204.18;79.50;;;4.00;99.90;;;;;;5146940;27;20035;-68
2022/03/26 06:40:47;;;;;;;203.45;79.85;;;4.20;99.90;;;;;;5146428;27;20047;-67
2022/03/26 06:43:12;;;;;;;196.15;76.47;;;4.50;99.90;;;;;;5146754;27;20042;-68
2022/03/26 06:45:40;;;;;;;204.02;82.93;;;4.50;99.90;;;;;;5144564;27;20060;-67
2022/03/26 06:48:06;;;;;;;200.32;81.63;;;4.80;99.90;;;;;;5145134;27;20067;-67
2022/03/26 06:50:32;;;;;;;202.60;79.22;;;4.90;99.90;;;;;;5145082;27;20043;-67
2022/03/26 06:52:59;;;;;;;199.40;81.05;;;5.00;99.90;;;;;;5146371;27;20042;-68
2022/03/26 06:55:25;;;;;;;187.15;77.78;;;5.10;99.90;;;;;;5144504;27;20047;-67
2022/03/26 06:57:51;;;;;;;187.85;81.35;;;5.20;99.90;;;;;;5145187;27;20483;-67
2022/03/26 07:00:18;;;;;;;188.45;80.35;;;5.40;99.90;;;;;;5141790;27;20075;-67
2022/03/26 07:02:44;;;;;;;177.32;78.25;;;5.70;99.90;;;;;;5146543;27;20043;-68
2022/03/26 07:05:10;;;;;;;186.10;78.63;;;5.70;99.90;;;;;;5143513;27;20045;-65
2022/03/26 07:07:36;;;;;;;182.52;76.70;;;6.00;99.90;;;;;;5145938;27;20062;-65
2022/03/26 07:10:03;;;;;;;172.70;75.32;;;6.10;99.90;;;;;;5145976;27;20047;-66
2022/03/26 07:12:29;;;;;;;174.55;75.28;;;6.10;99.90;;;;;;5145820;27;20051;-66
2022/03/26 07:14:55;;;;;;;177.15;75.55;;;6.30;99.90;;;;;;5143815;27;20060;-66
2022/03/26 07:17:21;;;;;;;174.52;78.03;;;6.60;99.90;;;;;;5145390;27;20058;-65
2022/03/26 07:19:48;;;;;;;180.20;77.43;;;6.70;99.90;;;;;;5145379;27;20042;-66
2022/03/26 07:22:14;;;;;;;178.52;75.80;;;6.90;99.90;;;;;;5144148;27;20047;-66
2022/03/26 07:24:40;;;;;;;165.23;73.80;;;6.90;99.90;;;;;;5143823;27;20043;-66
2022/03/26 07:27:06;;;;;;;170.35;75.68;;;7.10;99.90;;;;;;5144015;27;20074;-66
2022/03/26 07:29:35;;;;;;;165.73;73.85;;;7.10;99.90;;;;;;5143052;27;20039;-66
2022/03/26 07:32:01;;;;;;;144.43;65.95;;;7.00;99.90;;;;;;5144939;27;20050;-65
2022/03/26 07:34:27;;;;;;;133.60;59.55;;;7.20;99.90;;;;;;5145858;27;20054;-66
2022/03/26 07:36:53;;;;;;;133.93;57.10;;;7.40;99.90;;;;;;5143634;27;20099;-66
2022/03/26 07:39:19;;;;;;;123.25;57.10;;;7.70;99.90;;;;;;5145077;27;20467;-66
2022/03/26 07:41:45;;;;;;;126.00;57.75;;;8.10;99.90;;;;;;5125309;27;20074;-66
2022/03/26 07:44:11;;;;;;;101.43;47.50;;;8.40;99.90;;;;;;5142873;27;20043;-66
2022/03/26 07:46:36;;;;;;;104.82;49.60;;;8.60;99.90;;;;;;5145925;27;20053;-66
2022/03/26 07:49:03;;;;;;;103.85;50.90;;;8.90;99.90;;;;;;5144836;27;20047;-66
2022/03/26 07:51:28;;;;;;;101.47;49.65;;;9.10;99.90;;;;;;5143698;27;20053;-67
2022/03/26 07:53:54;;;;;;;96.85;47.13;;;9.30;99.90;;;;;;5144947;27;20039;-66
2022/03/26 07:56:21;;;;;;;95.63;46.67;;;9.20;99.90;;;;;;5145875;27;20050;-68
2022/03/26 07:58:49;;;;;;;93.60;45.95;;;9.40;99.90;;;;;;5159094;27;20095;-70
2022/03/26 08:01:15;;;;;;;95.60;47.83;;;9.60;99.90;;;;;;5127581;27;20051;-67
2022/03/26 08:03:41;;;;;;;98.07;45.97;;;9.70;99.90;;;;;;5145146;27;20078;-67
2022/03/26 08:06:07;;;;;;;86.15;42.20;;;9.90;99.90;;;;;;5144966;27;20053;-67
2022/03/26 08:08:33;;;;;;;83.40;42.08;;;10.00;99.90;;;;;;5144344;27;20372;-67
2022/03/26 08:10:59;;;;;;;88.35;42.28;;;10.10;99.90;;;;;;5145830;27;20495;-67
2022/03/26 08:13:25;;;;;;;86.35;40.47;;;10.20;99.90;;;;;;5144812;27;20043;-68
2022/03/26 08:15:52;;;;;;;78.57;39.13;;;10.30;99.90;;;;;;5159136;27;20072;-68
2022/03/26 08:18:18;;;;;;;80.65;39.25;;;10.30;99.90;;;;;;5146743;27;20047;-67
2022/03/26 08:20:44;;;;;;;79.55;38.00;;;10.50;99.90;;;;;;5164838;27;20057;-67
2022/03/26 08:23:11;;;;;;;81.28;39.20;;;10.50;99.90;;;;;;5146361;27;20035;-69
2022/03/26 08:28:21;;;;;;;66.63;33.97;;;10.80;99.90;;;;;;5165043;27;20043;-65
2022/03/26 08:30:47;;;;;;;69.22;33.95;;;11.00;99.90;;;;;;5165685;27;20110;-66
2022/03/26 08:33:13;;;;;;;76.82;38.92;;;11.00;99.90;;;;;;5165325;27;20073;-66
2022/03/26 08:35:40;;;;;;;67.20;33.58;;;11.10;99.90;;;;;;5146745;27;20078;-66
2022/03/26 08:38:07;;;;;;;59.55;28.63;;;11.10;99.90;;;;;;5165257;27;20035;-66
2022/03/26 08:40:33;;;;;;;63.65;31.08;;;11.10;99.90;;;;;;5142219;27;20126;-66
2022/03/26 08:42:59;;;;;;;61.17;28.73;;;11.30;99.90;;;;;;5165635;27;20042;-68
2022/03/26 08:45:29;;;;;;;63.90;28.92;;;11.40;99.90;;;;;;5164727;27;20034;-67
2022/03/26 08:47:55;;;;;;;56.03;28.58;;;11.50;99.90;;;;;;5129541;27;20137;-68
2022/03/26 08:50:22;;;;;;;56.72;29.33;;;11.50;99.90;;;;;;5146694;27;20475;-68
2022/03/26 08:52:48;;;;;;;51.88;27.45;;;11.50;99.90;;;;;;5165284;27;20039;-68
2022/03/26 08:55:15;;;;;;;55.67;28.88;;;11.60;99.90;;;;;;5146681;27;20047;-68
2022/03/26 08:57:41;;;;;;;58.13;29.60;;;11.70;99.90;;;;;;5165480;27;20062;-68
2022/03/26 09:00:09;;;;;;;60.92;32.22;;;11.80;99.90;;;;;;5145908;27;20053;-68
2022/03/26 09:02:35;;;;;;;76.70;36.03;;;11.80;99.90;;;;;;5146672;27;20061;-68
2022/03/26 09:05:01;;;;;;;63.00;34.90;;;11.80;99.90;;;;;;5158248;27;20027;-68
2022/03/26 09:07:27;;;;;;;63.58;35.50;;;11.90;99.90;;;;;;5165293;27;20313;-68
2022/03/26 09:09:52;;;;;;;69.10;37.15;;;11.90;99.90;;;;;;5168291;27;20167;-68
2022/03/26 09:12:18;;;;;;;62.22;34.42;;;12.00;99.90;;;;;;5168783;27;20034;-68
2022/03/26 09:14:44;;;;;;;62.22;33.03;;;12.00;99.90;;;;;;5150766;27;20054;-68
2022/03/26 09:17:10;;;;;;;65.60;37.45;;;12.10;99.90;;;;;;5168000;27;20046;-72
2022/03/26 09:19:36;;;;;;;62.28;33.78;;;12.20;99.90;;;;;;5149194;27;20051;-70
2022/03/26 09:22:02;;;;;;;65.75;35.65;;;12.30;99.90;;;;;;5150623;27;20072;-70
2022/03/26 09:24:29;;;;;;;48.75;29.95;;;12.30;99.90;;;;;;5167693;27;20051;-70
2022/03/26 09:26:55;;;;;;;50.80;30.80;;;12.40;99.90;;;;;;5132647;27;20536;-70
2022/03/26 09:29:20;;;;;;;55.72;30.45;;;12.60;99.90;;;;;;5150692;27;20054;-68
2022/03/26 09:31:46;;;;;;;48.05;28.98;;;12.70;99.90;;;;;;5150036;27;20030;-68
2022/03/26 09:34:12;;;;;;;34.67;22.85;;;12.90;99.90;;;;;;5168253;27;20038;-68
2022/03/26 09:36:38;;;;;;;34.67;24.00;;;13.00;99.90;;;;;;5149782;27;20126;-68
2022/03/26 09:39:04;;;;;;;37.05;23.20;;;13.20;99.90;;;;;;5150039;27;20067;-68
2022/03/26 09:41:34;;;;;;;40.05;26.02;;;13.40;99.90;;;;;;5167030;27;20078;-68
2022/03/26 09:44:00;;;;;;;38.78;24.42;;;13.50;99.90;;;;;;5168599;27;20051;-68
2022/03/26 09:46:26;;;;;;;38.35;23.70;;;13.60;99.90;;;;;;5148934;27;20046;-68
2022/03/26 09:48:52;;;;;;;31.95;24.10;;;13.70;99.90;;;;;;5166789;27;20050;-68
2022/03/26 09:51:23;;;;;;;33.08;21.52;;;13.80;99.90;;;;;;5149030;27;20053;-68
2022/03/26 09:53:51;;;;;;;32.53;21.08;;;14.00;99.90;;;;;;5167241;27;20043;-68
2022/03/26 09:56:18;;;;;;;32.03;20.77;;;14.10;99.90;;;;;;5168579;27;20050;-68
2022/03/26 09:58:45;;;;;;;31.58;18.85;;;14.10;99.90;;;;;;5133040;27;20049;-68
2022/03/26 10:01:10;;;;;;;28.17;17.80;;;14.20;99.90;;;;;;5152487;27;20039;-68
2022/03/26 10:03:39;;;;;;;23.95;16.98;;;14.30;99.90;;;;;;5169090;27;20117;-68
2022/03/26 10:06:09;;;;;;;25.13;14.90;;;14.40;99.90;;;;;;5171626;27;20046;-68
2022/03/26 10:08:37;;;;;;;26.42;17.02;;;14.50;99.90;;;;;;5149531;27;20039;-68
2022/03/26 10:11:04;;;;;;;28.08;16.02;;;14.70;99.90;;;;;;5131786;27;20074;-67
2022/03/26 10:13:42;;;;;;;21.00;14.60;;;14.80;99.90;;;;;;5150246;27;20038;-68
2022/03/26 10:16:13;;;;;;;23.65;16.83;;;14.90;99.90;;;;;;5148931;27;20042;-68
2022/03/26 10:18:47;;;;;;;20.55;14.90;;;14.90;99.90;;;;;;5139924;27;20047;-68
2022/03/26 10:21:15;;;;;;;23.88;15.48;;;15.00;99.90;;;;;;5128077;27;20051;-68
2022/03/26 10:23:45;;;;;;;22.88;15.32;;;15.10;99.90;;;;;;5127978;27;20047;-67
2022/03/26 10:26:12;;;;;;;25.00;15.75;;;15.10;99.90;;;;;;5127660;27;20079;-68
2022/03/26 10:28:43;;;;;;;28.08;17.58;;;15.10;99.90;;;;;;5127851;27;20436;-69
2022/03/26 10:34:19;;;;;;;23.13;15.90;;;15.30;99.90;;;;;;5126016;27;20039;-69
2022/03/26 10:36:55;;;;;;;25.80;16.88;;;15.40;99.90;;;;;;5126263;27;20054;-69
2022/03/26 10:39:23;;;;;;;18.40;12.85;;;15.40;99.90;;;;;;5111823;27;20099;-68
2022/03/26 10:41:50;;;;;;;29.20;16.30;;;15.50;99.90;;;;;;5147036;27;20045;-68
2022/03/26 10:44:17;;;;;;;22.92;15.15;;;15.50;99.90;;;;;;5124383;27;20035;-68
2022/03/26 10:46:52;;;;;;;18.95;14.27;;;15.50;99.90;;;;;;5146152;27;20050;-68
2022/03/26 10:49:31;;;;;;;25.17;15.70;;;15.60;99.90;;;;;;5124903;27;20054;-68
2022/03/26 10:52:03;;;;;;;20.65;12.82;;;15.70;99.90;;;;;;5127638;27;20145;-68
2022/03/26 10:54:31;;;;;;;24.50;14.63;;;15.70;99.90;;;;;;5146143;27;20039;-67
2022/03/26 10:56:58;;;;;;;23.85;14.43;;;15.80;99.90;;;;;;5145731;27;20533;-67
2022/03/26 10:59:25;;;;;;;19.45;12.93;;;15.90;99.90;;;;;;5127673;27;20040;-67
2022/03/26 11:01:51;;;;;;;19.88;14.07;;;16.20;99.90;;;;;;5146155;27;20046;-67
2022/03/26 11:04:18;;;;;;;21.77;13.88;;;16.20;99.90;;;;;;5145864;27;20047;-71
2022/03/26 11:06:44;;;;;;;24.27;14.68;;;16.10;99.90;;;;;;5126888;27;20074;-68
2022/03/26 11:09:11;;;;;;;21.33;13.10;;;16.10;99.90;;;;;;5126743;27;20487;-68
2022/03/26 11:11:37;;;;;;;25.13;15.88;;;16.10;99.90;;;;;;5145890;27;20093;-68
2022/03/26 11:14:10;;;;;;;21.55;15.82;;;16.20;99.90;;;;;;5146013;27;20077;-68
2022/03/26 11:16:59;;;;;;;24.23;15.80;;;16.20;99.90;;;;;;5128866;27;20537;-68
2022/03/26 11:19:45;;;;;;;20.25;13.88;;;16.20;99.90;;;;;;5147217;27;20062;-68
2022/03/26 11:22:33;;;;;;;21.63;14.55;;;16.30;99.90;;;;;;5145202;27;20046;-69
2022/03/26 11:25:10;;;;;;;24.27;14.45;;;16.50;99.90;;;;;;5144457;27;20039;-68
2022/03/26 11:27:57;;;;;;;20.58;13.10;;;16.60;99.90;;;;;;5125821;27;20062;-69
2022/03/26 11:30:47;;;;;;;20.92;13.45;;;16.60;99.90;;;;;;5144094;27;20051;-68
2022/03/26 11:33:17;;;;;;;16.85;12.32;;;16.80;99.90;;;;;;5142764;27;20071;-68
2022/03/26 11:35:56;;;;;;;19.42;12.68;;;16.90;99.90;;;;;;5146641;27;20057;-67
2022/03/26 11:38:24;;;;;;;16.80;11.68;;;16.90;99.90;;;;;;5087064;27;20077;-67
2022/03/26 11:40:54;;;;;;;13.18;10.13;;;16.80;99.90;;;;;;5106856;27;20043;-70
2022/03/26 11:43:42;;;;;;;13.93;10.63;;;16.90;99.90;;;;;;5085769;27;20806;-72
2022/03/26 11:51:40;;;;;;;18.05;12.10;;;17.00;99.90;;;;;;5139403;27;20047;-71
2022/03/26 11:54:13;;;;;;;16.33;11.70;;;17.00;99.90;;;;;;5115450;27;20043;-71
2022/03/26 11:56:39;;;;;;;18.55;11.98;;;17.00;99.90;;;;;;5091942;27;21105;-71
2022/03/26 11:59:06;;;;;;;15.23;11.52;;;17.10;99.90;;;;;;5117823;27;20043;-71
2022/03/26 12:01:37;;;;;;;13.75;10.75;;;17.20;99.90;;;;;;5125489;27;20075;-71
2022/03/26 12:04:11;;;;;;;23.92;11.32;;;17.30;99.90;;;;;;5136672;27;20050;-71
2022/03/26 12:06:50;;;;;;;17.90;11.07;;;17.30;99.90;;;;;;5124222;27;20431;-71
2022/03/26 12:09:34;;;;;;;14.57;10.82;;;17.40;99.90;;;;;;5137100;27;20056;-71
2022/03/26 12:12:10;;;;;;;18.60;10.13;;;17.60;99.90;;;;;;5120986;27;20055;-71
2022/03/26 12:15:19;;;;;;;14.23;9.32;;;17.70;99.90;;;;;;5117882;27;20038;-71
2022/03/26 12:17:49;;;;;;;20.67;10.52;;;17.70;99.90;;;;;;5079387;27;20052;-71
2022/03/26 12:20:24;;;;;;;14.25;10.07;;;17.80;99.90;;;;;;5106583;27;20078;-72
2022/03/26 12:23:11;;;;;;;10.25;8.73;;;17.80;99.90;;;;;;5116799;28;20596;-71
2022/03/26 12:25:49;;;;;;;10.80;7.85;;;17.90;99.90;;;;;;5107926;28;20047;-71
2022/03/26 12:28:26;;;;;;;12.70;8.63;;;18.20;99.90;;;;;;5120275;27;20098;-71
2022/03/26 12:30:55;;;;;;;9.95;7.18;;;18.20;99.90;;;;;;5109741;28;20084;-71
2022/03/26 12:33:22;;;;;;;29.92;8.50;;;18.20;99.90;;;;;;5116362;27;20042;-71
2022/03/26 12:35:52;;;;;;;10.45;7.70;;;18.30;99.90;;;;;;5112755;27;20059;-71
2022/03/26 12:38:19;;;;;;;;;;;18.30;99.90;;;;;;5119691;28;20134;-68
2022/03/26 12:40:49;;;;;;;15.40;8.40;;;18.30;99.90;;;;;;5104607;28;19931;-68
2022/03/26 12:43:15;;;;;;;12.00;7.00;;;18.50;99.90;;;;;;5130382;27;20043;-73
2022/03/26 12:45:40;;;;;;;22.27;7.30;;;18.50;99.90;;;;;;5103779;28;20071;-74